sensor_id;sensor_type;location;lat;lon;timestamp;P1;durP1;ratioP1;P2;durP2;ratioP2
75009;SDS011;63564;46.840;18.336;2022-11-04T00:02:20;72.93;;;26.87;;
75009;SDS011;63564;46.840;18.336;2022-11-04T00:05:21;74.00;;;25.30;;
75009;SDS011;63564;46.840;18.336;2022-11-04T00:08:21;77.37;;;25.80;;
75009;SDS011;63564;46.840;18.336;2022-11-04T00:11:25;79.13;;;27.00;;
75009;SDS011;63564;46.840;18.336;2022-11-04T00:14:45;72.55;;;24.27;;
75009;SDS011;63564;46.840;18.336;2022-11-04T00:17:45;76.63;;;25.27;;
75009;SDS011;63564;46.840;18.336;2022-11-04T00:20:45;76.27;;;26.77;;
75009;SDS011;63564;46.840;18.336;2022-11-04T00:24:04;57.90;;;22.38;;
75009;SDS011;63564;46.840;18.336;2022-11-04T00:27:24;63.35;;;22.63;;
75009;SDS011;63564;46.840;18.336;2022-11-04T00:30:43;66.22;;;22.55;;
75009;SDS011;63564;46.840;18.336;2022-11-04T00:33:43;74.60;;;25.67;;
75009;SDS011;63564;46.840;18.336;2022-11-04T00:36:44;69.87;;;26.20;;
75009;SDS011;63564;46.840;18.336;2022-11-04T00:39:44;67.13;;;24.10;;
75009;SDS011;63564;46.840;18.336;2022-11-04T00:42:45;67.13;;;23.73;;
75009;SDS011;63564;46.840;18.336;2022-11-04T00:45:45;68.43;;;24.80;;
75009;SDS011;63564;46.840;18.336;2022-11-04T00:48:46;74.53;;;25.70;;
75009;SDS011;63564;46.840;18.336;2022-11-04T00:51:47;74.20;;;24.58;;
75009;SDS011;63564;46.840;18.336;2022-11-04T00:54:47;68.20;;;23.17;;
75009;SDS011;63564;46.840;18.336;2022-11-04T00:57:48;77.00;;;26.20;;
75009;SDS011;63564;46.840;18.336;2022-11-04T01:00:48;76.40;;;24.87;;
75009;SDS011;63564;46.840;18.336;2022-11-04T01:03:49;77.77;;;26.07;;
75009;SDS011;63564;46.840;18.336;2022-11-04T01:06:51;73.43;;;24.15;;
75009;SDS011;63564;46.840;18.336;2022-11-04T01:09:52;79.70;;;26.73;;
75009;SDS011;63564;46.840;18.336;2022-11-04T01:12:52;79.17;;;27.70;;
75009;SDS011;63564;46.840;18.336;2022-11-04T01:15:52;74.20;;;25.60;;
75009;SDS011;63564;46.840;18.336;2022-11-04T01:18:53;78.80;;;27.73;;
75009;SDS011;63564;46.840;18.336;2022-11-04T01:21:53;73.83;;;25.90;;
75009;SDS011;63564;46.840;18.336;2022-11-04T01:24:53;77.20;;;26.23;;
75009;SDS011;63564;46.840;18.336;2022-11-04T01:27:54;81.30;;;26.07;;
75009;SDS011;63564;46.840;18.336;2022-11-04T01:30:55;77.43;;;26.52;;
75009;SDS011;63564;46.840;18.336;2022-11-04T01:33:55;73.40;;;26.57;;
75009;SDS011;63564;46.840;18.336;2022-11-04T01:36:57;78.63;;;25.88;;
75009;SDS011;63564;46.840;18.336;2022-11-04T01:39:57;73.10;;;25.53;;
75009;SDS011;63564;46.840;18.336;2022-11-04T01:42:58;75.97;;;24.77;;
75009;SDS011;63564;46.840;18.336;2022-11-04T01:45:58;65.83;;;23.67;;
75009;SDS011;63564;46.840;18.336;2022-11-04T01:49:02;75.57;;;25.67;;
75009;SDS011;63564;46.840;18.336;2022-11-04T01:52:10;75.97;;;25.42;;
75009;SDS011;63564;46.840;18.336;2022-11-04T01:55:18;69.68;;;25.10;;
75009;SDS011;63564;46.840;18.336;2022-11-04T01:58:25;70.37;;;24.60;;
75009;SDS011;63564;46.840;18.336;2022-11-04T02:01:30;59.85;;;22.52;;
75009;SDS011;63564;46.840;18.336;2022-11-04T02:04:30;70.67;;;24.53;;
75009;SDS011;63564;46.840;18.336;2022-11-04T02:07:31;69.05;;;24.38;;
75009;SDS011;63564;46.840;18.336;2022-11-04T02:10:31;72.67;;;24.30;;
75009;SDS011;63564;46.840;18.336;2022-11-04T02:13:32;61.77;;;22.07;;
75009;SDS011;63564;46.840;18.336;2022-11-04T02:16:44;64.20;;;22.70;;
75009;SDS011;63564;46.840;18.336;2022-11-04T02:20:10;59.78;;;23.17;;
75009;SDS011;63564;46.840;18.336;2022-11-04T02:30:14;67.05;;;23.77;;
75009;SDS011;63564;46.840;18.336;2022-11-04T02:33:20;56.63;;;22.48;;
75009;SDS011;63564;46.840;18.336;2022-11-04T02:39:54;56.25;;;20.95;;
75009;SDS011;63564;46.840;18.336;2022-11-04T02:43:42;59.17;;;21.73;;
75009;SDS011;63564;46.840;18.336;2022-11-04T02:50:10;63.55;;;23.40;;
75009;SDS011;63564;46.840;18.336;2022-11-04T02:53:18;64.95;;;23.50;;
75009;SDS011;63564;46.840;18.336;2022-11-04T02:56:26;67.05;;;24.25;;
75009;SDS011;63564;46.840;18.336;2022-11-04T02:59:50;65.47;;;23.60;;
75009;SDS011;63564;46.840;18.336;2022-11-04T03:02:59;61.25;;;22.25;;
75009;SDS011;63564;46.840;18.336;2022-11-04T03:06:02;57.78;;;21.60;;
75009;SDS011;63564;46.840;18.336;2022-11-04T03:09:05;65.35;;;23.20;;
75009;SDS011;63564;46.840;18.336;2022-11-04T03:12:08;65.85;;;22.35;;
75009;SDS011;63564;46.840;18.336;2022-11-04T03:15:16;67.63;;;23.67;;
75009;SDS011;63564;46.840;18.336;2022-11-04T03:18:28;59.90;;;21.42;;
75009;SDS011;63564;46.840;18.336;2022-11-04T03:21:32;62.85;;;22.20;;
75009;SDS011;63564;46.840;18.336;2022-11-04T03:24:36;54.75;;;20.73;;
75009;SDS011;63564;46.840;18.336;2022-11-04T03:27:59;53.80;;;19.33;;
75009;SDS011;63564;46.840;18.336;2022-11-04T03:31:04;58.70;;;21.30;;
75009;SDS011;63564;46.840;18.336;2022-11-04T03:34:10;59.05;;;20.50;;
75009;SDS011;63564;46.840;18.336;2022-11-04T03:37:11;52.37;;;18.77;;
75009;SDS011;63564;46.840;18.336;2022-11-04T03:40:11;57.77;;;19.53;;
75009;SDS011;63564;46.840;18.336;2022-11-04T03:43:14;52.97;;;18.65;;
75009;SDS011;63564;46.840;18.336;2022-11-04T03:46:18;55.10;;;18.92;;
75009;SDS011;63564;46.840;18.336;2022-11-04T03:49:19;77.67;;;23.10;;
75009;SDS011;63564;46.840;18.336;2022-11-04T03:52:21;58.95;;;21.13;;
75009;SDS011;63564;46.840;18.336;2022-11-04T03:55:23;62.08;;;21.30;;
75009;SDS011;63564;46.840;18.336;2022-11-04T04:01:53;55.80;;;19.02;;
75009;SDS011;63564;46.840;18.336;2022-11-04T04:08:37;58.97;;;20.67;;
75009;SDS011;63564;46.840;18.336;2022-11-04T04:11:52;58.63;;;20.13;;
75009;SDS011;63564;46.840;18.336;2022-11-04T04:14:56;63.03;;;21.58;;
75009;SDS011;63564;46.840;18.336;2022-11-04T04:18:02;64.70;;;21.80;;
75009;SDS011;63564;46.840;18.336;2022-11-04T04:21:07;55.38;;;19.20;;
75009;SDS011;63564;46.840;18.336;2022-11-04T04:24:10;64.18;;;21.75;;
75009;SDS011;63564;46.840;18.336;2022-11-04T04:27:31;66.17;;;21.97;;
75009;SDS011;63564;46.840;18.336;2022-11-04T04:30:33;108.32;;;23.00;;
75009;SDS011;63564;46.840;18.336;2022-11-04T04:33:34;67.45;;;22.85;;
75009;SDS011;63564;46.840;18.336;2022-11-04T04:36:38;67.63;;;21.53;;
75009;SDS011;63564;46.840;18.336;2022-11-04T04:39:45;72.30;;;22.27;;
75009;SDS011;63564;46.840;18.336;2022-11-04T04:43:05;67.75;;;23.17;;
75009;SDS011;63564;46.840;18.336;2022-11-04T04:46:32;64.37;;;21.07;;
75009;SDS011;63564;46.840;18.336;2022-11-04T04:49:34;83.88;;;21.30;;
75009;SDS011;63564;46.840;18.336;2022-11-04T04:52:38;80.73;;;21.87;;
75009;SDS011;63564;46.840;18.336;2022-11-04T04:55:40;71.75;;;21.35;;
75009;SDS011;63564;46.840;18.336;2022-11-04T04:58:40;67.57;;;21.63;;
75009;SDS011;63564;46.840;18.336;2022-11-04T05:01:41;90.17;;;21.87;;
75009;SDS011;63564;46.840;18.336;2022-11-04T05:04:41;84.17;;;22.30;;
75009;SDS011;63564;46.840;18.336;2022-11-04T05:07:41;72.93;;;22.20;;
75009;SDS011;63564;46.840;18.336;2022-11-04T05:10:42;90.27;;;23.23;;
75009;SDS011;63564;46.840;18.336;2022-11-04T05:13:42;67.03;;;21.30;;
75009;SDS011;63564;46.840;18.336;2022-11-04T05:16:42;56.60;;;17.07;;
75009;SDS011;63564;46.840;18.336;2022-11-04T05:19:43;71.57;;;20.77;;
75009;SDS011;63564;46.840;18.336;2022-11-04T05:22:43;67.43;;;20.57;;
75009;SDS011;63564;46.840;18.336;2022-11-04T05:25:43;75.47;;;22.33;;
75009;SDS011;63564;46.840;18.336;2022-11-04T05:28:44;96.28;;;21.05;;
75009;SDS011;63564;46.840;18.336;2022-11-04T05:31:44;77.40;;;22.27;;
75009;SDS011;63564;46.840;18.336;2022-11-04T05:34:46;80.07;;;21.57;;
75009;SDS011;63564;46.840;18.336;2022-11-04T05:37:46;74.83;;;22.07;;
75009;SDS011;63564;46.840;18.336;2022-11-04T05:40:47;71.78;;;21.30;;
75009;SDS011;63564;46.840;18.336;2022-11-04T05:43:47;70.90;;;21.93;;
75009;SDS011;63564;46.840;18.336;2022-11-04T05:46:47;80.97;;;21.70;;
75009;SDS011;63564;46.840;18.336;2022-11-04T05:49:48;78.27;;;21.93;;
75009;SDS011;63564;46.840;18.336;2022-11-04T05:52:48;80.00;;;22.33;;
75009;SDS011;63564;46.840;18.336;2022-11-04T05:55:49;75.45;;;20.65;;
75009;SDS011;63564;46.840;18.336;2022-11-04T05:58:50;89.77;;;21.77;;
75009;SDS011;63564;46.840;18.336;2022-11-04T06:01:50;84.67;;;22.23;;
75009;SDS011;63564;46.840;18.336;2022-11-04T06:04:51;84.67;;;21.73;;
75009;SDS011;63564;46.840;18.336;2022-11-04T06:07:51;86.25;;;21.98;;
75009;SDS011;63564;46.840;18.336;2022-11-04T06:10:52;61.80;;;17.70;;
75009;SDS011;63564;46.840;18.336;2022-11-04T06:13:52;72.63;;;22.37;;
75009;SDS011;63564;46.840;18.336;2022-11-04T06:16:53;86.35;;;22.58;;
75009;SDS011;63564;46.840;18.336;2022-11-04T06:19:53;99.83;;;24.40;;
75009;SDS011;63564;46.840;18.336;2022-11-04T06:22:54;101.27;;;25.47;;
75009;SDS011;63564;46.840;18.336;2022-11-04T06:25:54;98.33;;;22.87;;
75009;SDS011;63564;46.840;18.336;2022-11-04T06:28:55;98.27;;;24.07;;
75009;SDS011;63564;46.840;18.336;2022-11-04T06:31:56;112.10;;;25.15;;
75009;SDS011;63564;46.840;18.336;2022-11-04T06:34:56;84.87;;;23.57;;
75009;SDS011;63564;46.840;18.336;2022-11-04T06:37:56;83.73;;;21.60;;
75009;SDS011;63564;46.840;18.336;2022-11-04T06:40:57;86.37;;;22.20;;
75009;SDS011;63564;46.840;18.336;2022-11-04T06:43:57;70.95;;;22.25;;
75009;SDS011;63564;46.840;18.336;2022-11-04T06:46:58;89.80;;;24.10;;
75009;SDS011;63564;46.840;18.336;2022-11-04T06:49:58;89.40;;;25.50;;
75009;SDS011;63564;46.840;18.336;2022-11-04T06:53:00;79.07;;;23.47;;
75009;SDS011;63564;46.840;18.336;2022-11-04T06:56:01;74.38;;;21.83;;
75009;SDS011;63564;46.840;18.336;2022-11-04T06:59:03;77.40;;;21.65;;
75009;SDS011;63564;46.840;18.336;2022-11-04T07:02:03;62.10;;;21.73;;
75009;SDS011;63564;46.840;18.336;2022-11-04T07:05:04;69.15;;;22.15;;
75009;SDS011;63564;46.840;18.336;2022-11-04T07:08:05;63.97;;;19.83;;
75009;SDS011;63564;46.840;18.336;2022-11-04T07:11:06;73.27;;;22.27;;
75009;SDS011;63564;46.840;18.336;2022-11-04T07:14:06;72.50;;;22.30;;
75009;SDS011;63564;46.840;18.336;2022-11-04T07:17:07;70.15;;;21.88;;
75009;SDS011;63564;46.840;18.336;2022-11-04T07:20:08;74.63;;;23.47;;
75009;SDS011;63564;46.840;18.336;2022-11-04T07:23:12;75.38;;;22.33;;
75009;SDS011;63564;46.840;18.336;2022-11-04T07:26:12;83.33;;;23.93;;
75009;SDS011;63564;46.840;18.336;2022-11-04T07:29:13;70.37;;;21.33;;
75009;SDS011;63564;46.840;18.336;2022-11-04T07:32:13;64.55;;;20.88;;
75009;SDS011;63564;46.840;18.336;2022-11-04T07:35:14;71.53;;;22.05;;
75009;SDS011;63564;46.840;18.336;2022-11-04T07:38:14;72.10;;;21.67;;
75009;SDS011;63564;46.840;18.336;2022-11-04T07:41:14;77.70;;;23.60;;
75009;SDS011;63564;46.840;18.336;2022-11-04T07:44:15;58.72;;;19.92;;
75009;SDS011;63564;46.840;18.336;2022-11-04T07:47:16;60.60;;;21.17;;
75009;SDS011;63564;46.840;18.336;2022-11-04T07:50:16;68.77;;;21.97;;
75009;SDS011;63564;46.840;18.336;2022-11-04T07:53:16;67.97;;;22.23;;
75009;SDS011;63564;46.840;18.336;2022-11-04T07:56:17;69.37;;;21.73;;
75009;SDS011;63564;46.840;18.336;2022-11-04T07:59:18;59.63;;;20.63;;
75009;SDS011;63564;46.840;18.336;2022-11-04T08:02:18;54.23;;;20.17;;
75009;SDS011;63564;46.840;18.336;2022-11-04T08:05:18;61.20;;;21.10;;
75009;SDS011;63564;46.840;18.336;2022-11-04T08:08:19;65.73;;;21.23;;
75009;SDS011;63564;46.840;18.336;2022-11-04T08:11:20;52.87;;;19.57;;
75009;SDS011;63564;46.840;18.336;2022-11-04T08:14:24;55.05;;;19.50;;
75009;SDS011;63564;46.840;18.336;2022-11-04T08:17:24;51.50;;;19.43;;
75009;SDS011;63564;46.840;18.336;2022-11-04T08:20:25;59.63;;;20.65;;
75009;SDS011;63564;46.840;18.336;2022-11-04T08:23:25;49.87;;;18.47;;
75009;SDS011;63564;46.840;18.336;2022-11-04T08:26:25;60.23;;;21.10;;
75009;SDS011;63564;46.840;18.336;2022-11-04T08:29:26;58.57;;;20.00;;
75009;SDS011;63564;46.840;18.336;2022-11-04T08:32:26;57.80;;;20.50;;
75009;SDS011;63564;46.840;18.336;2022-11-04T08:35:26;56.03;;;20.53;;
75009;SDS011;63564;46.840;18.336;2022-11-04T08:38:27;58.40;;;20.70;;
75009;SDS011;63564;46.840;18.336;2022-11-04T08:41:28;57.50;;;21.98;;
75009;SDS011;63564;46.840;18.336;2022-11-04T08:44:29;62.78;;;21.15;;
75009;SDS011;63564;46.840;18.336;2022-11-04T08:47:30;59.30;;;19.70;;
75009;SDS011;63564;46.840;18.336;2022-11-04T08:50:30;59.17;;;20.53;;
75009;SDS011;63564;46.840;18.336;2022-11-04T08:53:30;60.53;;;20.37;;
75009;SDS011;63564;46.840;18.336;2022-11-04T08:56:32;61.23;;;21.10;;
75009;SDS011;63564;46.840;18.336;2022-11-04T08:59:34;54.28;;;21.23;;
75009;SDS011;63564;46.840;18.336;2022-11-04T09:02:35;54.42;;;20.83;;
75009;SDS011;63564;46.840;18.336;2022-11-04T09:05:36;58.03;;;20.67;;
75009;SDS011;63564;46.840;18.336;2022-11-04T09:08:43;61.67;;;22.53;;
75009;SDS011;63564;46.840;18.336;2022-11-04T09:11:44;59.95;;;22.33;;
75009;SDS011;63564;46.840;18.336;2022-11-04T09:14:45;65.53;;;22.35;;
75009;SDS011;63564;46.840;18.336;2022-11-04T09:17:45;66.13;;;23.97;;
75009;SDS011;63564;46.840;18.336;2022-11-04T09:20:46;93.40;;;34.33;;
75009;SDS011;63564;46.840;18.336;2022-11-04T09:23:46;90.77;;;33.03;;
75009;SDS011;63564;46.840;18.336;2022-11-04T09:26:47;104.33;;;42.13;;
75009;SDS011;63564;46.840;18.336;2022-11-04T09:29:47;64.00;;;25.33;;
75009;SDS011;63564;46.840;18.336;2022-11-04T09:32:48;70.95;;;27.77;;
75009;SDS011;63564;46.840;18.336;2022-11-04T09:35:55;79.60;;;30.63;;
75009;SDS011;63564;46.840;18.336;2022-11-04T09:38:56;120.40;;;43.83;;
75009;SDS011;63564;46.840;18.336;2022-11-04T09:45:18;86.00;;;30.35;;
75009;SDS011;63564;46.840;18.336;2022-11-04T09:51:34;70.78;;;24.98;;
75009;SDS011;63564;46.840;18.336;2022-11-04T09:54:40;66.95;;;23.83;;
75009;SDS011;63564;46.840;18.336;2022-11-04T09:57:50;71.90;;;26.83;;
75009;SDS011;63564;46.840;18.336;2022-11-04T10:04:23;62.50;;;25.17;;
75009;SDS011;63564;46.840;18.336;2022-11-04T10:07:54;66.90;;;24.73;;
75009;SDS011;63564;46.840;18.336;2022-11-04T10:24:17;69.13;;;26.17;;
75009;SDS011;63564;46.840;18.336;2022-11-04T10:27:25;59.20;;;25.15;;
75009;SDS011;63564;46.840;18.336;2022-11-04T10:30:29;55.78;;;24.90;;
75009;SDS011;63564;46.840;18.336;2022-11-04T10:33:34;55.33;;;24.65;;
75009;SDS011;63564;46.840;18.336;2022-11-04T10:36:38;58.07;;;25.07;;
75009;SDS011;63564;46.840;18.336;2022-11-04T10:39:43;62.80;;;24.92;;
75009;SDS011;63564;46.840;18.336;2022-11-04T10:42:46;62.75;;;24.02;;
75009;SDS011;63564;46.840;18.336;2022-11-04T10:52:38;58.00;;;24.05;;
75009;SDS011;63564;46.840;18.336;2022-11-04T10:58:53;53.45;;;23.98;;
75009;SDS011;63564;46.840;18.336;2022-11-04T11:01:57;56.43;;;25.10;;
75009;SDS011;63564;46.840;18.336;2022-11-04T11:05:20;62.83;;;26.20;;
75009;SDS011;63564;46.840;18.336;2022-11-04T11:08:26;79.15;;;33.83;;
75009;SDS011;63564;46.840;18.336;2022-11-04T11:14:40;71.93;;;31.67;;
75009;SDS011;63564;46.840;18.336;2022-11-04T11:17:41;74.20;;;31.60;;
75009;SDS011;63564;46.840;18.336;2022-11-04T11:20:47;76.35;;;32.15;;
75009;SDS011;63564;46.840;18.336;2022-11-04T11:23:50;76.40;;;31.75;;
75009;SDS011;63564;46.840;18.336;2022-11-04T11:26:55;67.40;;;27.60;;
75009;SDS011;63564;46.840;18.336;2022-11-04T11:30:00;68.68;;;27.17;;
75009;SDS011;63564;46.840;18.336;2022-11-04T11:33:02;61.70;;;25.13;;
75009;SDS011;63564;46.840;18.336;2022-11-04T11:36:07;70.80;;;28.33;;
75009;SDS011;63564;46.840;18.336;2022-11-04T11:39:15;100.10;;;40.45;;
75009;SDS011;63564;46.840;18.336;2022-11-04T11:42:20;77.90;;;31.30;;
75009;SDS011;63564;46.840;18.336;2022-11-04T11:45:21;65.93;;;27.00;;
75009;SDS011;63564;46.840;18.336;2022-11-04T11:48:26;66.70;;;27.65;;
75009;SDS011;63564;46.840;18.336;2022-11-04T11:51:32;69.95;;;28.33;;
75009;SDS011;63564;46.840;18.336;2022-11-04T11:54:35;68.40;;;27.42;;
75009;SDS011;63564;46.840;18.336;2022-11-04T11:57:40;67.33;;;27.47;;
75009;SDS011;63564;46.840;18.336;2022-11-04T12:00:50;67.57;;;26.90;;
75009;SDS011;63564;46.840;18.336;2022-11-04T12:03:57;69.68;;;27.88;;
75009;SDS011;63564;46.840;18.336;2022-11-04T12:10:38;73.13;;;28.67;;
75009;SDS011;63564;46.840;18.336;2022-11-04T12:13:57;64.90;;;26.67;;
75009;SDS011;63564;46.840;18.336;2022-11-04T12:24:02;78.75;;;30.80;;
75009;SDS011;63564;46.840;18.336;2022-11-04T12:30:25;79.70;;;32.57;;
75009;SDS011;63564;46.840;18.336;2022-11-04T12:40:27;82.43;;;30.83;;
75009;SDS011;63564;46.840;18.336;2022-11-04T12:43:43;80.10;;;32.80;;
75009;SDS011;63564;46.840;18.336;2022-11-04T12:46:51;79.77;;;29.93;;
75009;SDS011;63564;46.840;18.336;2022-11-04T13:00:19;76.90;;;29.83;;
75009;SDS011;63564;46.840;18.336;2022-11-04T13:03:28;80.37;;;30.93;;
75009;SDS011;63564;46.840;18.336;2022-11-04T13:06:36;80.53;;;31.60;;
75009;SDS011;63564;46.840;18.336;2022-11-04T13:09:42;83.90;;;32.90;;
75009;SDS011;63564;46.840;18.336;2022-11-04T13:12:50;79.70;;;31.10;;
75009;SDS011;63564;46.840;18.336;2022-11-04T13:15:55;79.55;;;31.58;;
75009;SDS011;63564;46.840;18.336;2022-11-04T13:19:00;81.73;;;32.77;;
75009;SDS011;63564;46.840;18.336;2022-11-04T13:22:04;80.00;;;33.08;;
75009;SDS011;63564;46.840;18.336;2022-11-04T13:25:20;88.03;;;31.88;;
75009;SDS011;63564;46.840;18.336;2022-11-04T13:28:48;79.78;;;30.35;;
75009;SDS011;63564;46.840;18.336;2022-11-04T13:32:04;83.77;;;32.90;;
75009;SDS011;63564;46.840;18.336;2022-11-04T13:45:14;83.43;;;33.90;;
75009;SDS011;63564;46.840;18.336;2022-11-04T13:48:18;89.27;;;33.70;;
75009;SDS011;63564;46.840;18.336;2022-11-04T13:51:21;91.15;;;34.60;;
75009;SDS011;63564;46.840;18.336;2022-11-04T13:54:41;88.30;;;36.63;;
75009;SDS011;63564;46.840;18.336;2022-11-04T13:57:56;89.28;;;33.80;;
75009;SDS011;63564;46.840;18.336;2022-11-04T14:04:29;89.55;;;36.45;;
75009;SDS011;63564;46.840;18.336;2022-11-04T14:11:10;94.77;;;36.63;;
75009;SDS011;63564;46.840;18.336;2022-11-04T14:14:15;91.45;;;37.20;;
75009;SDS011;63564;46.840;18.336;2022-11-04T14:20:34;87.20;;;35.17;;
75009;SDS011;63564;46.840;18.336;2022-11-04T14:23:36;83.15;;;34.50;;
75009;SDS011;63564;46.840;18.336;2022-11-04T14:26:41;88.30;;;34.57;;
75009;SDS011;63564;46.840;18.336;2022-11-04T14:29:47;88.80;;;34.40;;
75009;SDS011;63564;46.840;18.336;2022-11-04T14:32:50;88.15;;;34.95;;
75009;SDS011;63564;46.840;18.336;2022-11-04T14:35:55;89.13;;;35.78;;
75009;SDS011;63564;46.840;18.336;2022-11-04T14:42:12;93.87;;;36.70;;
75009;SDS011;63564;46.840;18.336;2022-11-04T14:48:42;87.50;;;36.50;;
75009;SDS011;63564;46.840;18.336;2022-11-04T14:51:52;92.63;;;37.50;;
75009;SDS011;63564;46.840;18.336;2022-11-04T14:54:57;85.57;;;35.85;;
75009;SDS011;63564;46.840;18.336;2022-11-04T15:01:37;80.72;;;35.08;;
75009;SDS011;63564;46.840;18.336;2022-11-04T15:04:38;90.53;;;35.87;;
75009;SDS011;63564;46.840;18.336;2022-11-04T15:07:52;90.65;;;36.35;;
75009;SDS011;63564;46.840;18.336;2022-11-04T15:14:22;82.68;;;34.85;;
75009;SDS011;63564;46.840;18.336;2022-11-04T15:17:24;87.07;;;36.90;;
75009;SDS011;63564;46.840;18.336;2022-11-04T15:20:28;92.68;;;37.45;;
75009;SDS011;63564;46.840;18.336;2022-11-04T15:23:30;90.13;;;37.80;;
75009;SDS011;63564;46.840;18.336;2022-11-04T15:26:34;87.82;;;37.30;;
75009;SDS011;63564;46.840;18.336;2022-11-04T15:29:35;114.22;;;44.58;;
75009;SDS011;63564;46.840;18.336;2022-11-04T15:32:35;126.90;;;54.07;;
75009;SDS011;63564;46.840;18.336;2022-11-04T15:35:35;94.17;;;40.97;;
75009;SDS011;63564;46.840;18.336;2022-11-04T15:38:44;88.20;;;38.75;;
75009;SDS011;63564;46.840;18.336;2022-11-04T15:41:53;100.53;;;41.75;;
75009;SDS011;63564;46.840;18.336;2022-11-04T15:48:38;93.65;;;41.28;;
75009;SDS011;63564;46.840;18.336;2022-11-04T15:51:39;101.22;;;43.13;;
75009;SDS011;63564;46.840;18.336;2022-11-04T15:54:44;122.78;;;54.88;;
75009;SDS011;63564;46.840;18.336;2022-11-04T15:57:47;109.57;;;47.50;;
75009;SDS011;63564;46.840;18.336;2022-11-04T16:00:52;98.13;;;42.57;;
75009;SDS011;63564;46.840;18.336;2022-11-04T16:03:54;109.25;;;51.70;;
75009;SDS011;63564;46.840;18.336;2022-11-04T16:07:19;112.75;;;52.75;;
75009;SDS011;63564;46.840;18.336;2022-11-04T16:10:28;111.85;;;51.72;;
75009;SDS011;63564;46.840;18.336;2022-11-04T16:13:33;109.18;;;49.47;;
75009;SDS011;63564;46.840;18.336;2022-11-04T16:16:33;97.90;;;45.70;;
75009;SDS011;63564;46.840;18.336;2022-11-04T16:19:34;104.87;;;46.33;;
75009;SDS011;63564;46.840;18.336;2022-11-04T16:22:36;107.70;;;50.22;;
75009;SDS011;63564;46.840;18.336;2022-11-04T16:25:39;110.00;;;49.95;;
75009;SDS011;63564;46.840;18.336;2022-11-04T16:28:39;94.20;;;43.40;;
75009;SDS011;63564;46.840;18.336;2022-11-04T16:31:41;99.95;;;44.17;;
75009;SDS011;63564;46.840;18.336;2022-11-04T16:34:45;86.40;;;39.47;;
75009;SDS011;63564;46.840;18.336;2022-11-04T16:37:52;84.95;;;38.38;;
75009;SDS011;63564;46.840;18.336;2022-11-04T16:40:53;88.18;;;37.22;;
75009;SDS011;63564;46.840;18.336;2022-11-04T16:43:53;82.73;;;38.00;;
75009;SDS011;63564;46.840;18.336;2022-11-04T16:46:54;101.55;;;43.85;;
75009;SDS011;63564;46.840;18.336;2022-11-04T16:50:00;99.80;;;43.77;;
75009;SDS011;63564;46.840;18.336;2022-11-04T16:53:01;91.45;;;40.85;;
75009;SDS011;63564;46.840;18.336;2022-11-04T16:56:02;80.53;;;38.05;;
75009;SDS011;63564;46.840;18.336;2022-11-04T16:59:03;79.10;;;37.90;;
75009;SDS011;63564;46.840;18.336;2022-11-04T17:02:12;79.50;;;39.03;;
75009;SDS011;63564;46.840;18.336;2022-11-04T17:05:16;78.53;;;39.83;;
75009;SDS011;63564;46.840;18.336;2022-11-04T17:08:17;74.80;;;37.20;;
75009;SDS011;63564;46.840;18.336;2022-11-04T17:11:18;76.57;;;35.33;;
75009;SDS011;63564;46.840;18.336;2022-11-04T17:14:18;113.97;;;50.22;;
75009;SDS011;63564;46.840;18.336;2022-11-04T17:17:19;118.88;;;51.15;;
75009;SDS011;63564;46.840;18.336;2022-11-04T17:20:19;112.60;;;48.80;;
75009;SDS011;63564;46.840;18.336;2022-11-04T17:23:20;115.80;;;51.77;;
75009;SDS011;63564;46.840;18.336;2022-11-04T17:26:21;113.50;;;52.38;;
75009;SDS011;63564;46.840;18.336;2022-11-04T17:29:21;119.77;;;52.13;;
75009;SDS011;63564;46.840;18.336;2022-11-04T17:32:21;120.63;;;53.60;;
75009;SDS011;63564;46.840;18.336;2022-11-04T17:35:22;105.33;;;47.27;;
75009;SDS011;63564;46.840;18.336;2022-11-04T17:38:22;110.77;;;49.17;;
75009;SDS011;63564;46.840;18.336;2022-11-04T17:41:22;121.10;;;52.60;;
75009;SDS011;63564;46.840;18.336;2022-11-04T17:44:41;113.22;;;50.80;;
75009;SDS011;63564;46.840;18.336;2022-11-04T17:47:41;103.67;;;46.53;;
75009;SDS011;63564;46.840;18.336;2022-11-04T17:50:42;99.37;;;47.60;;
75009;SDS011;63564;46.840;18.336;2022-11-04T17:53:42;106.57;;;46.07;;
75009;SDS011;63564;46.840;18.336;2022-11-04T17:56:42;93.85;;;41.75;;
75009;SDS011;63564;46.840;18.336;2022-11-04T17:59:43;93.43;;;43.53;;
75009;SDS011;63564;46.840;18.336;2022-11-04T18:02:43;93.20;;;42.53;;
75009;SDS011;63564;46.840;18.336;2022-11-04T18:05:44;89.23;;;44.00;;
75009;SDS011;63564;46.840;18.336;2022-11-04T18:08:44;84.10;;;41.35;;
75009;SDS011;63564;46.840;18.336;2022-11-04T18:11:45;84.70;;;40.83;;
75009;SDS011;63564;46.840;18.336;2022-11-04T18:15:09;92.78;;;44.55;;
75009;SDS011;63564;46.840;18.336;2022-11-04T18:18:11;114.50;;;52.50;;
75009;SDS011;63564;46.840;18.336;2022-11-04T18:21:11;106.53;;;51.47;;
75009;SDS011;63564;46.840;18.336;2022-11-04T18:24:12;97.87;;;48.47;;
75009;SDS011;63564;46.840;18.336;2022-11-04T18:27:13;96.73;;;46.50;;
75009;SDS011;63564;46.840;18.336;2022-11-04T18:30:14;94.75;;;43.42;;
75009;SDS011;63564;46.840;18.336;2022-11-04T18:33:15;82.97;;;40.50;;
75009;SDS011;63564;46.840;18.336;2022-11-04T18:36:15;88.47;;;42.50;;
75009;SDS011;63564;46.840;18.336;2022-11-04T18:39:16;95.30;;;45.70;;
75009;SDS011;63564;46.840;18.336;2022-11-04T18:42:17;93.78;;;46.05;;
75009;SDS011;63564;46.840;18.336;2022-11-04T18:45:18;100.33;;;46.97;;
75009;SDS011;63564;46.840;18.336;2022-11-04T18:48:19;110.68;;;50.72;;
75009;SDS011;63564;46.840;18.336;2022-11-04T18:51:21;101.25;;;47.25;;
75009;SDS011;63564;46.840;18.336;2022-11-04T18:54:22;95.88;;;45.88;;
75009;SDS011;63564;46.840;18.336;2022-11-04T18:57:22;97.23;;;44.80;;
75009;SDS011;63564;46.840;18.336;2022-11-04T19:00:23;91.93;;;44.90;;
75009;SDS011;63564;46.840;18.336;2022-11-04T19:03:34;99.10;;;48.35;;
75009;SDS011;63564;46.840;18.336;2022-11-04T19:06:47;85.60;;;43.60;;
75009;SDS011;63564;46.840;18.336;2022-11-04T19:09:47;90.03;;;45.50;;
75009;SDS011;63564;46.840;18.336;2022-11-04T19:12:48;87.90;;;45.03;;
75009;SDS011;63564;46.840;18.336;2022-11-04T19:16:08;92.95;;;44.42;;
75009;SDS011;63564;46.840;18.336;2022-11-04T19:19:12;91.07;;;44.60;;
75009;SDS011;63564;46.840;18.336;2022-11-04T19:22:16;87.28;;;41.67;;
75009;SDS011;63564;46.840;18.336;2022-11-04T19:25:17;88.03;;;43.50;;
75009;SDS011;63564;46.840;18.336;2022-11-04T19:28:17;96.40;;;44.93;;
75009;SDS011;63564;46.840;18.336;2022-11-04T19:31:19;100.38;;;45.55;;
75009;SDS011;63564;46.840;18.336;2022-11-04T19:34:21;92.93;;;44.70;;
75009;SDS011;63564;46.840;18.336;2022-11-04T19:37:21;102.90;;;46.33;;
75009;SDS011;63564;46.840;18.336;2022-11-04T19:40:21;103.03;;;45.72;;
75009;SDS011;63564;46.840;18.336;2022-11-04T19:43:22;93.10;;;45.47;;
75009;SDS011;63564;46.840;18.336;2022-11-04T19:46:23;90.93;;;44.90;;